默认 日期 大小 文件数 浏览量 最新下载 xml
cohen磁力链接相关资源由用户搜索指令自动获取,结果来源于网络,本站不存储任何资料,亦不承担任何责任,请于24小时内删除,搜索到2184个磁力,用时2ms。
    ... Manhattan.flac": 71603612, "00 - Leonard Cohen - I'm Your Man.m3u8 ...
创建时间: 2018-11-27 19:21:14 大小:452.55 MB 文件数量:21 热度:11 最近下载:2025-08-04 17:05:08
    {"Scans": {"Back.jpg": 1055358, "Front.jpg": 1217933, "Side A.jpg": 745742, "Side B.jpg": 768995}, "Front.jpg": 108046, "Leonard Cohen - Greatest Hits.cue": 1070, "Leonard Cohen - Greatest Hits.wav": 3220134048}
创建时间: 2018-11-27 20:20:42 大小:3 GB 文件数量:7 热度:10 最近下载:2025-03-01 11:50:04
    {"Sample": {"cosmid.17.08.07.katie.cohen-sample.mp4": 70210120}, "RARBG.txt": 30, "cosmid.17.08.07.katie.cohen.mp4": 447942965, "cosmid.17.08.07.katie.cohen.nfo": 5178}
创建时间: 2018-11-28 05:05:27 大小:494.15 MB 文件数量:4 热度:8 最近下载:2024-09-06 22:14:02
    {"flac-md5.md5": 1120, "gd89-04-16d1t01.flac": 1440465, "gd89-04-16d1t02.flac": 37622142, "gd89-04-16d1t03.flac": 41376956, "gd89-04-16d1t04.flac": 55435501, "gd89-04-16d1t05.flac": 35569399, "gd89-04-16d1t06.flac": 15870518, "gd89-04-16d1t07.flac": ...
创建时间: 2018-11-28 18:15:49 大小:756.86 MB 文件数量:22 热度:13 最近下载:2023-04-20 07:30:07
    ... ).ape": 422727780, "Leonard Cohen - The Essential Leonard Cohen (Disc 1 of 2 ... ).cue": 2827, "Leonard Cohen - The Essential Leonard Cohen (Disc 1 of 2 ... ).ape": 500394392, "Leonard Cohen - The Essential Leonard Cohen (Disc 2 of 2 ...
创建时间: 2018-11-28 22:48:05 大小:883.86 MB 文件数量:18 热度:11 最近下载:2024-12-02 13:34:02
    ... ": 270929}, "Front.jpg": 120928, "Leonard Cohen - Popular Problems.cue": 1296, "Leonard ... Cohen - Popular Problems.log": 6736, "Leonard Cohen - Popular Problems.flac": 203274639, "Leonard Cohen ...
创建时间: 2018-11-29 00:02:29 大小:390.38 MB 文件数量:21 热度:10 最近下载:2024-12-13 02:42:02
    {"001. Book One.mp3": 8090696, "002. Book One.mp3": 6968162, "003. Book One.mp3": 7136495, "004. Book One.mp3": 7203891, "005. Book One.mp3": 7008600, "006. Book One.mp3": 7202324, "007. Book One.mp3": 7660302, "008. Book One.mp3": 7273168, "009. Book One. ...
创建时间: 2018-11-29 14:52:23 大小:1.22 GB 文件数量:186 热度:16 最近下载:2025-10-02 02:47:02
    {"CD1": {"Cover.jpg": 300867, "05 - The Window.mp3": 13681341, "03 - Who By Fire.mp3": 17825408, "04 - Passing Through.mp3": 12880959, "01 - Bird On The Wire.mp3": 13792112, "09 - Chelsea Hotel #2.mp3": 10848635, "06 - Lover Lover Lover.mp3": 20304963, "07 ...
创建时间: 2018-11-29 18:06:01 大小:263.46 MB 文件数量:22 热度:9 最近下载:2023-04-20 12:20:01
    ... png": 213325, "04 - leonard cohen - undertow.mp3": 6348023, "12 ... mp3": 3096091, "10 - leonard cohen - nightingale.mp3": 3664098, "09 ... ": 3783843, "05 - leonard cohen - morning glory.mp3": 5144300 ... {"folder.jpg": 10028, "Leonard Cohen - The butcher.mp3": 4515437, ...
创建时间: 2018-11-29 18:49:54 大小:869.93 MB 文件数量:137 热度:8 最近下载:2025-02-09 17:31:02
    {"Ten New Songs.cue": 2438, "Ten New Songs.log": 9859, "04 - Here It Is.flac": 27313214, "05 - Love Itself.flac": 31555992, "09 - Boogie Street.flac": 35788716, "01 - In My Secret Life.flac": 32192922, "07 - Alexandra Leaving.flac": 29677249, "06 - By The ...
创建时间: 2018-11-30 05:46:06 大小:306.74 MB 文件数量:12 热度:8 最近下载:2023-04-20 14:50:05
    ... Candle).flac": 35125481, "Erran Baron Cohen Presents Songs In The Key ... Hanukkah.cue": 1908, "Erran Baron Cohen Presents Songs In The Key ... Hanukkah.log": 8090, "Erran Baron Cohen Presents Songs In The Key ...
创建时间: 2018-11-30 16:55:21 大小:288.37 MB 文件数量:15 热度:10 最近下载:2024-11-12 16:15:02
    {"Cd 1": {"09 - Anthem.mp3": 10187601, "12 - Suzanne.mp3": 4729987, "02 - The Future.mp3": 10620054, "07 - Who by Fire.mp3": 9326764, "10 - Introduction.mp3": 2048101, "11 - Tower of Song.mp3": 9534837, "05 - Everybody Knows.mp3": 8625943, "04 - Bird on ...
创建时间: 2018-11-30 19:43:17 大小:200.93 MB 文件数量:29 热度:12 最近下载:2025-03-03 12:55:03
    ... flac": 36600643, "Cohen Mannheim 1988T02.flac": 26030946, "Cohen Mannheim 1988T03.flac ... ": 43269233, "Cohen Mannheim 1988T04.flac ... ": 33404484, "Cohen Mannheim 1988T05.flac ...
创建时间: 2018-12-02 23:08:46 大小:803.26 MB 文件数量:28 热度:10 最近下载:2025-03-28 15:18:01
    {"Homo economicus - Daniel Cohen.nfo": 112, "Homo economicus - Daniel Cohen.pdf": 677711, "Homo economicus - Daniel Cohen.epub": 234627, "Homo economicus - Daniel Cohen.mobi": 248818}
创建时间: 2018-12-03 00:11:24 大小:1.11 MB 文件数量:4 热度:9 最近下载:2025-05-21 05:43:02
    {"info": {"1.png": 601454, "2.jpg": 82520, "Nostalgie11.jpg": 190298, "Torrent Downloaded From 1337x.to.txt": 32, "Torrent downloaded from demonoid.pw.txt": 46, "Torrent Downloaded From bitnova.info.txt": 19, "Torrent Downloaded From super-torrent.txt": 42 ...
创建时间: 2018-12-03 01:25:29 大小:7.95 GB 文件数量:15 热度:16 最近下载:2025-08-04 09:06:09
    {"folder.jpg": 7388, "Leonard Cohen - More Best of Leonard Cohen.cue": 1983, "Leonard Cohen - More Best of Leonard Cohen.log": 2872, "Leonard Cohen - More Best of Leonard Cohen.flac": 441042465}
创建时间: 2018-12-03 01:26:19 大小:420.62 MB 文件数量:4 热度:10 最近下载:2025-03-02 19:39:02
    {"VIDEO_TS": {"VIDEO_TS.BUP": 8192, "VIDEO_TS.IFO": 8192, "VTS_01_0.BUP": 47104, "VTS_01_0.IFO": 47104, "VTS_01_0.VOB": 4272128, "VTS_01_1.VOB": 1073565696, "VTS_01_2.VOB": 1073565696, "VTS_01_3.VOB": 1073565696, "VTS_01_4.VOB": 45422592}}
创建时间: 2018-12-03 03:27:32 大小:3.05 GB 文件数量:9 热度:9 最近下载:2024-12-22 04:36:02
    {"Leonard.Cohen.Live.at.the.Isle. ... .disk1.ts": 18080752420, "Leonard.Cohen.Live.at.the.Isle.of ... .ts.par2": 28164, "Leonard.Cohen.Live.at.the.Isle.of ... +1.PAR2": 13084232, "Leonard.Cohen.Live.at.the.Isle.of ... +2.PAR2": 26168388, "Leonard.Cohen.Live.at.the.Isle.of ...
创建时间: 2018-12-03 04:32:27 大小:16.91 GB 文件数量:5 热度:20 最近下载:2025-01-21 01:52:07
    ... "Torrent_downloaded_from_Demonoid.com.txt": 47, "Ken Cohen - Taoism CD2 (10) Contemplation - ... Philosophy - Simplicity.mp3": 2420864, "Ken Cohen - Taoism CD1 (10) Religion - ... Practicing Emptiness.mp3": 5081088, "Ken Cohen - Taoism CD2 (09) Contemplation - ...
创建时间: 2018-12-03 04:53:06 大小:120.65 MB 文件数量:53 热度:10 最近下载:2025-05-12 20:34:02
    {"cover.jpg": 43739, "metadata.opf": 1382, "What's Left__ How Liberals Lost - Nick Cohen.epub": 452108, "What's Left__ How Liberals Lost - Nick Cohen.mobi": 621974, "You Can't Read This Book - Censorship in an Age of Freedom-Nick Cohen.epub": 406945}
创建时间: 2018-12-03 05:55:28 大小:1.46 MB 文件数量:5 热度:9 最近下载:2025-02-17 11:58:07